createdAt,value
2017-11-27T00:00:13.695Z,60.40
2017-11-27T00:02:45.014Z,61.20
2017-11-27T00:05:16.997Z,61.00
2017-11-27T00:07:47.836Z,61.30
2017-11-27T00:10:23.995Z,61.20
2017-11-27T00:12:56.156Z,61.20
2017-11-27T00:15:27.511Z,60.80
2017-11-27T00:17:59.516Z,60.90
2017-11-27T00:20:31.876Z,61.20
2017-11-27T00:23:05.667Z,61.20
2017-11-27T00:25:37.999Z,60.80
2017-11-27T00:28:09.986Z,60.70
2017-11-27T00:30:44.197Z,61.10
2017-11-27T00:33:19.539Z,61.70
2017-11-27T00:35:51.606Z,61.50
2017-11-27T00:38:23.596Z,61.50
2017-11-27T00:40:58.086Z,61.60
2017-11-27T00:43:29.525Z,61.50
2017-11-27T00:46:01.086Z,62.00
2017-11-27T00:48:32.676Z,61.90
2017-11-27T00:51:04.497Z,61.70
2017-11-27T00:53:35.536Z,61.40
2017-11-27T00:56:08.426Z,61.50
2017-11-27T00:58:39.876Z,62.80
2017-11-27T01:01:11.726Z,61.40
2017-11-27T01:03:43.896Z,61.10
2017-11-27T01:06:20.665Z,61.30
2017-11-27T01:08:54.375Z,61.40
2017-11-27T01:11:25.715Z,62.30
2017-11-27T01:13:57.408Z,61.60
2017-11-27T01:16:33.337Z,61.70
2017-11-27T01:19:10.105Z,61.80
2017-11-27T01:21:41.747Z,62.10
2017-11-27T01:24:17.716Z,62.50
2017-11-27T01:26:49.919Z,62.40
2017-11-27T01:29:22.010Z,62.50
2017-11-27T01:31:54.825Z,62.00
2017-11-27T01:34:28.966Z,62.40
2017-11-27T01:37:00.596Z,62.10
2017-11-27T01:39:32.757Z,62.30
2017-11-27T01:42:06.006Z,61.70
2017-11-27T01:44:38.539Z,62.10
2017-11-27T01:47:13.366Z,61.80
2017-11-27T01:49:44.437Z,61.80
2017-11-27T01:52:16.666Z,61.30
2017-11-27T01:54:47.946Z,61.30
2017-11-27T01:57:19.367Z,61.30
2017-11-27T01:59:50.606Z,61.00
2017-11-27T02:02:20.716Z,61.30
2017-11-27T02:04:56.475Z,61.10
2017-11-27T02:07:35.106Z,60.20
2017-11-27T02:10:14.426Z,60.50
2017-11-27T02:12:48.546Z,61.10
2017-11-27T02:15:20.296Z,61.10
2017-11-27T02:17:49.487Z,61.30
2017-11-27T02:20:21.456Z,61.50
2017-11-27T02:22:54.956Z,61.90
2017-11-27T02:25:26.096Z,61.70
2017-11-27T02:27:58.025Z,61.60
2017-11-27T02:30:30.426Z,61.00
2017-11-27T02:33:01.467Z,61.00
2017-11-27T02:35:36.297Z,61.10
2017-11-27T02:38:07.946Z,61.10
2017-11-27T02:40:44.633Z,60.70
2017-11-27T02:43:19.346Z,60.60
2017-11-27T02:45:51.986Z,60.50
2017-11-27T02:48:33.978Z,60.80
2017-11-27T02:51:06.395Z,60.70
2017-11-27T02:53:37.336Z,60.40
2017-11-27T02:56:09.204Z,60.50
2017-11-27T02:58:42.976Z,60.00
2017-11-27T03:01:14.137Z,59.70
2017-11-27T03:03:48.455Z,60.40
2017-11-27T03:06:19.975Z,60.50
2017-11-27T03:08:51.056Z,60.90
2017-11-27T03:11:23.836Z,60.30
2017-11-27T03:13:55.416Z,60.20
2017-11-27T03:16:26.635Z,60.00
2017-11-27T03:18:57.906Z,59.80
2017-11-27T03:21:29.666Z,59.80
2017-11-27T03:24:04.767Z,60.00
2017-11-27T03:26:39.806Z,59.20
2017-11-27T03:29:13.606Z,59.60
2017-11-27T03:31:45.006Z,59.50
2017-11-27T03:34:16.504Z,59.90
2017-11-27T03:36:47.858Z,59.80
2017-11-27T03:39:24.634Z,59.80
2017-11-27T03:41:56.626Z,60.50
2017-11-27T03:44:31.145Z,60.30
2017-11-27T03:47:03.486Z,60.50
2017-11-27T03:49:34.877Z,60.60
2017-11-27T03:52:05.387Z,60.60
2017-11-27T03:54:37.445Z,60.60
2017-11-27T03:57:14.706Z,61.70
2017-11-27T03:59:49.025Z,60.80
2017-11-27T04:02:22.562Z,61.20
2017-11-27T04:04:53.766Z,61.10
2017-11-27T04:07:25.625Z,61.10
2017-11-27T04:10:01.477Z,61.20
2017-11-27T04:12:33.235Z,61.10
2017-11-27T04:15:04.417Z,61.30
2017-11-27T04:17:39.306Z,61.30
2017-11-27T04:20:11.576Z,62.00
2017-11-27T04:22:42.306Z,61.00
2017-11-27T04:25:16.726Z,60.40
2017-11-27T04:27:48.727Z,60.40
2017-11-27T04:30:20.656Z,60.60
2017-11-27T04:32:57.587Z,60.50
2017-11-27T04:35:29.746Z,60.00
2017-11-27T04:38:01.976Z,60.10
2017-11-27T04:40:34.006Z,59.40
2017-11-27T04:43:06.096Z,59.30
2017-11-27T04:45:42.708Z,59.60
2017-11-27T04:48:15.137Z,59.60
2017-11-27T04:50:48.435Z,59.10
2017-11-27T04:53:19.889Z,59.10
2017-11-27T04:55:51.536Z,59.20
2017-11-27T04:58:29.996Z,59.70
2017-11-27T05:01:02.526Z,59.00
2017-11-27T05:03:35.107Z,58.80
2017-11-27T05:06:09.246Z,59.30
2017-11-27T05:08:40.007Z,59.10
2017-11-27T05:11:13.246Z,58.20
2017-11-27T05:13:45.136Z,58.50
2017-11-27T05:16:26.306Z,58.30
2017-11-27T05:18:58.595Z,58.50
2017-11-27T05:21:30.716Z,58.20
2017-11-27T05:24:02.886Z,58.10
2017-11-27T05:26:34.425Z,58.70
2017-11-27T05:29:10.045Z,58.30
2017-11-27T05:31:41.966Z,57.90
2017-11-27T05:34:13.086Z,57.50
2017-11-27T05:36:44.526Z,57.50
2017-11-27T05:39:19.995Z,56.60
2017-11-27T05:41:52.136Z,57.00
2017-11-27T05:44:24.716Z,56.90
2017-11-27T05:46:56.365Z,57.00
2017-11-27T05:49:27.504Z,57.30
2017-11-27T05:52:01.726Z,57.30
2017-11-27T05:54:33.496Z,57.60
2017-11-27T05:57:05.281Z,56.30
2017-11-27T05:59:47.445Z,56.60
2017-11-27T06:02:21.356Z,56.30
2017-11-27T06:04:55.167Z,56.90
2017-11-27T06:07:29.276Z,56.80
2017-11-27T06:10:04.824Z,55.80
2017-11-27T06:12:35.346Z,55.70
2017-11-27T06:15:07.247Z,56.40
2017-11-27T06:17:38.986Z,56.60
2017-11-27T06:20:10.446Z,56.20
2017-11-27T06:22:42.296Z,56.00
2017-11-27T06:25:16.486Z,55.70
2017-11-27T06:27:47.626Z,56.30
2017-11-27T06:30:18.766Z,56.40
2017-11-27T06:32:49.949Z,56.20
2017-11-27T06:35:21.977Z,56.60
2017-11-27T06:37:53.457Z,57.10
2017-11-27T06:40:24.006Z,56.80
2017-11-27T06:43:02.467Z,56.00
2017-11-27T06:45:35.146Z,56.40
2017-11-27T06:48:11.816Z,57.90
2017-11-27T06:50:45.005Z,57.90
2017-11-27T06:53:15.946Z,57.40
2017-11-27T06:55:48.515Z,59.70
2017-11-27T06:58:20.336Z,59.30
2017-11-27T07:00:51.856Z,60.50
2017-11-27T07:03:23.216Z,59.90
2017-11-27T07:05:56.977Z,60.40
2017-11-27T07:08:30.712Z,61.30
2017-11-27T07:11:04.696Z,61.40
2017-11-27T07:13:37.676Z,59.80
2017-11-27T07:16:09.166Z,59.70
2017-11-27T07:18:43.555Z,59.40
2017-11-27T07:21:15.625Z,58.80
2017-11-27T07:23:47.609Z,59.30
2017-11-27T07:26:20.198Z,59.40
2017-11-27T07:28:52.455Z,58.60
2017-11-27T07:31:24.595Z,58.50
2017-11-27T07:34:01.676Z,58.50
2017-11-27T07:36:33.846Z,57.80
2017-11-27T07:39:09.476Z,57.80
2017-11-27T07:41:40.726Z,58.00
2017-11-27T07:44:11.906Z,57.50
2017-11-27T07:46:42.516Z,57.50
2017-11-27T07:49:14.565Z,56.80
2017-11-27T07:51:46.425Z,57.00
2017-11-27T07:54:19.417Z,56.90
2017-11-27T07:56:50.966Z,57.00
2017-11-27T07:59:24.026Z,57.50
2017-11-27T08:01:55.806Z,56.90
2017-11-27T08:04:30.016Z,56.40
2017-11-27T08:07:02.247Z,55.90
2017-11-27T08:09:42.636Z,56.20
2017-11-27T08:12:15.126Z,56.70
2017-11-27T08:14:46.984Z,56.60
2017-11-27T08:17:20.416Z,57.00
2017-11-27T08:19:51.315Z,56.70
2017-11-27T08:22:28.496Z,57.50
2017-11-27T08:24:59.837Z,57.00
2017-11-27T08:27:31.487Z,57.80
2017-11-27T08:30:06.127Z,57.90
2017-11-27T08:32:37.415Z,57.80
2017-11-27T08:35:08.716Z,57.50
2017-11-27T08:37:43.356Z,57.30
2017-11-27T08:40:14.895Z,58.00
2017-11-27T08:42:48.046Z,57.70
2017-11-27T08:45:19.646Z,58.30
2017-11-27T08:47:51.509Z,58.40
2017-11-27T08:50:23.975Z,58.20
2017-11-27T08:52:59.836Z,59.20
2017-11-27T08:55:31.486Z,59.50
2017-11-27T08:58:03.240Z,60.70
2017-11-27T09:00:34.516Z,58.60
2017-11-27T09:03:06.336Z,58.10
2017-11-27T09:05:38.746Z,58.10
2017-11-27T09:08:13.575Z,57.90
2017-11-27T09:10:51.756Z,58.00
2017-11-27T09:13:27.706Z,57.70
2017-11-27T09:16:01.105Z,58.20
2017-11-27T09:18:32.586Z,58.60
2017-11-27T09:21:07.897Z,58.20
2017-11-27T09:23:39.036Z,58.20
2017-11-27T09:26:09.756Z,57.80
2017-11-27T09:28:46.128Z,57.00
2017-11-27T09:31:19.036Z,57.80
2017-11-27T09:33:51.984Z,56.60
2017-11-27T09:36:24.196Z,55.90
2017-11-27T09:38:58.270Z,56.00
2017-11-27T09:41:32.075Z,55.50
2017-11-27T09:44:03.775Z,55.60
2017-11-27T09:46:35.495Z,56.00
2017-11-27T09:49:07.135Z,56.60
2017-11-27T09:51:40.786Z,56.20
2017-11-27T09:54:12.906Z,56.30
2017-11-27T09:56:44.976Z,57.00
2017-11-27T09:59:20.926Z,56.10
2017-11-27T10:01:53.056Z,56.70
2017-11-27T10:04:25.035Z,56.60
2017-11-27T10:07:00.535Z,57.00
2017-11-27T10:09:32.396Z,56.10
2017-11-27T10:12:10.865Z,56.00
2017-11-27T10:14:43.665Z,56.00
2017-11-27T10:17:16.028Z,55.60
2017-11-27T10:19:48.495Z,55.70
2017-11-27T10:22:20.676Z,56.00
2017-11-27T10:24:52.527Z,55.60
2017-11-27T10:27:23.666Z,55.30
2017-11-27T10:29:55.736Z,55.80
2017-11-27T10:32:31.186Z,54.90
2017-11-27T10:35:09.286Z,54.90
2017-11-27T10:37:40.742Z,55.00
2017-11-27T10:40:10.868Z,55.10
2017-11-27T10:42:44.034Z,55.00
2017-11-27T10:45:15.216Z,54.90
2017-11-27T10:47:47.466Z,55.30
2017-11-27T10:50:19.967Z,55.70
2017-11-27T10:52:51.836Z,54.50
2017-11-27T10:55:24.265Z,54.10
2017-11-27T10:57:55.607Z,54.30
2017-11-27T11:00:36.586Z,53.80
2017-11-27T11:03:07.206Z,53.70
2017-11-27T11:05:39.066Z,54.50
2017-11-27T11:08:14.415Z,53.20
2017-11-27T11:10:49.234Z,53.80
2017-11-27T11:13:24.226Z,54.10
2017-11-27T11:15:59.065Z,54.10
2017-11-27T11:18:34.855Z,53.60
2017-11-27T11:21:06.406Z,53.70
2017-11-27T11:23:38.495Z,54.20
2017-11-27T11:26:13.005Z,54.30
2017-11-27T11:28:44.788Z,54.80
2017-11-27T11:31:16.749Z,54.80
2017-11-27T11:33:50.447Z,54.10
2017-11-27T11:36:22.052Z,54.70
2017-11-27T11:38:53.326Z,54.90
2017-11-27T11:41:28.147Z,53.40
2017-11-27T11:43:59.486Z,53.60
2017-11-27T11:46:32.056Z,53.60
2017-11-27T11:49:04.041Z,53.60
2017-11-27T11:51:37.217Z,53.50
2017-11-27T11:54:10.413Z,54.50
2017-11-27T11:56:42.476Z,53.70
2017-11-27T11:59:13.927Z,53.50
2017-11-27T12:01:50.286Z,54.00
2017-11-27T12:04:22.184Z,53.40
2017-11-27T12:06:53.928Z,52.90
2017-11-27T12:09:28.766Z,53.60
2017-11-27T12:12:02.554Z,54.00
2017-11-27T12:14:33.716Z,51.20
2017-11-27T12:17:05.736Z,49.20
2017-11-27T12:19:40.466Z,48.20
2017-11-27T12:22:11.347Z,48.50
2017-11-27T12:24:46.546Z,49.20
2017-11-27T12:27:17.697Z,49.10
2017-11-27T12:29:51.727Z,47.30
2017-11-27T12:32:24.586Z,47.20
2017-11-27T12:34:56.097Z,47.40
2017-11-27T12:37:29.370Z,45.80
2017-11-27T12:40:03.237Z,46.20
2017-11-27T12:42:36.236Z,45.50
2017-11-27T12:45:15.602Z,46.50
2017-11-27T12:47:52.840Z,45.20
2017-11-27T12:50:24.759Z,44.30
2017-11-27T12:52:58.755Z,44.50
2017-11-27T12:55:33.036Z,44.70
2017-11-27T12:58:04.877Z,44.70
2017-11-27T13:00:36.336Z,45.20
2017-11-27T13:03:08.046Z,44.10
2017-11-27T13:05:40.406Z,43.70
2017-11-27T13:08:11.906Z,44.70
2017-11-27T13:10:43.406Z,44.60
2017-11-27T13:13:15.125Z,44.70
2017-11-27T13:15:47.496Z,44.10
2017-11-27T13:18:19.805Z,44.80
2017-11-27T13:20:52.105Z,43.30
2017-11-27T13:23:24.228Z,43.90
2017-11-27T13:25:55.636Z,43.70
2017-11-27T13:28:27.717Z,44.20
2017-11-27T13:31:00.825Z,45.60
2017-11-27T13:33:33.367Z,45.60
2017-11-27T13:36:05.436Z,46.10
2017-11-27T13:38:38.018Z,45.30
2017-11-27T13:41:10.796Z,45.30
2017-11-27T13:43:42.658Z,44.70
2017-11-27T13:46:14.816Z,45.30
2017-11-27T13:48:46.890Z,46.40
2017-11-27T13:51:17.506Z,46.30
2017-11-27T13:53:49.696Z,46.10
2017-11-27T13:56:21.775Z,46.80
2017-11-27T13:58:54.336Z,46.20
2017-11-27T14:01:28.336Z,46.90
2017-11-27T14:04:03.466Z,47.80
2017-11-27T14:06:37.774Z,47.20
2017-11-27T14:09:08.810Z,47.30
2017-11-27T14:11:40.986Z,47.40
2017-11-27T14:14:13.149Z,47.70
2017-11-27T14:16:47.176Z,48.80
2017-11-27T14:19:18.715Z,49.70
2017-11-27T14:21:50.895Z,49.50
2017-11-27T14:24:26.546Z,48.70
2017-11-27T14:27:00.278Z,49.20
2017-11-27T14:29:31.380Z,48.50
2017-11-27T14:32:03.437Z,48.00
2017-11-27T14:34:35.410Z,48.80
2017-11-27T14:37:07.145Z,47.80
2017-11-27T14:39:38.416Z,47.80
2017-11-27T14:42:09.586Z,46.70
2017-11-27T14:44:41.986Z,48.20
2017-11-27T14:47:14.297Z,48.20
2017-11-27T14:49:46.456Z,47.90
2017-11-27T14:52:19.756Z,47.80
2017-11-27T14:54:54.886Z,47.70
2017-11-27T14:57:26.327Z,48.10
2017-11-27T14:59:58.506Z,47.70
2017-11-27T15:02:30.766Z,47.70
2017-11-27T15:05:04.986Z,48.00
2017-11-27T15:07:41.057Z,47.90
2017-11-27T15:10:16.075Z,48.60
2017-11-27T15:12:48.106Z,49.10
2017-11-27T15:15:20.476Z,48.00
2017-11-27T15:17:53.067Z,48.70
2017-11-27T15:20:25.516Z,47.60
2017-11-27T15:22:58.997Z,48.10
2017-11-27T15:25:30.726Z,47.40
2017-11-27T15:28:03.077Z,47.90
2017-11-27T15:30:35.966Z,47.80
2017-11-27T15:33:11.639Z,48.10
2017-11-27T15:35:45.256Z,47.60
2017-11-27T15:38:17.066Z,47.10
2017-11-27T15:40:49.366Z,47.20
2017-11-27T15:43:21.320Z,47.20
2017-11-27T15:45:53.886Z,47.20
2017-11-27T15:48:27.387Z,46.90
2017-11-27T15:50:59.486Z,48.10
2017-11-27T15:53:32.957Z,46.60
2017-11-27T15:56:03.976Z,47.40
2017-11-27T15:58:36.606Z,45.60
2017-11-27T16:01:09.246Z,45.90
2017-11-27T16:03:41.195Z,47.20
2017-11-27T16:06:16.130Z,46.90
2017-11-27T16:08:48.708Z,45.20
2017-11-27T16:11:20.995Z,45.40
2017-11-27T16:13:57.106Z,45.30
2017-11-27T16:16:29.127Z,44.50
2017-11-27T16:19:14.077Z,43.20
2017-11-27T16:21:51.160Z,42.90
2017-11-27T16:24:26.026Z,42.50
2017-11-27T16:27:05.016Z,42.50
2017-11-27T16:29:36.677Z,43.20
2017-11-27T16:32:19.686Z,43.60
2017-11-27T16:34:51.996Z,43.80
2017-11-27T16:37:26.790Z,43.80
2017-11-27T16:39:58.167Z,44.30
2017-11-27T16:42:28.667Z,45.00
2017-11-27T16:45:02.269Z,44.70
2017-11-27T16:47:37.807Z,44.70
2017-11-27T16:50:16.671Z,45.00
2017-11-27T16:52:49.016Z,45.50
2017-11-27T16:55:21.146Z,46.00
2017-11-27T16:57:58.118Z,46.10
2017-11-27T17:00:30.257Z,45.00
2017-11-27T17:03:02.277Z,45.00
2017-11-27T17:05:35.670Z,45.50
2017-11-27T17:08:08.666Z,45.40
2017-11-27T17:10:40.927Z,45.60
2017-11-27T17:13:11.966Z,45.60
2017-11-27T17:15:43.826Z,45.80
2017-11-27T17:18:19.787Z,45.90
2017-11-27T17:20:51.447Z,45.80
2017-11-27T17:23:23.707Z,46.40
2017-11-27T17:26:00.066Z,45.60
2017-11-27T17:28:31.617Z,45.60
2017-11-27T17:31:03.156Z,46.40
2017-11-27T17:33:35.037Z,46.30
2017-11-27T17:36:10.997Z,46.70
2017-11-27T17:38:45.317Z,46.20
2017-11-27T17:41:27.210Z,45.80
2017-11-27T17:44:04.536Z,45.90
2017-11-27T17:46:37.278Z,45.60
2017-11-27T17:49:09.587Z,45.00
2017-11-27T17:51:41.806Z,45.20
2017-11-27T17:54:13.666Z,44.80
2017-11-27T17:56:44.507Z,44.40
2017-11-27T17:59:16.567Z,44.40
2017-11-27T18:01:50.481Z,44.60
2017-11-27T18:04:27.115Z,44.20
2017-11-27T18:07:04.437Z,44.10
2017-11-27T18:09:36.127Z,44.70
2017-11-27T18:12:11.236Z,43.70
2017-11-27T18:14:52.197Z,44.40
2017-11-27T18:17:24.260Z,44.70
2017-11-27T18:20:02.114Z,45.10
2017-11-27T18:22:35.116Z,44.80
2017-11-27T18:25:12.436Z,45.30
2017-11-27T18:27:46.647Z,45.10
2017-11-27T18:30:21.786Z,45.20
2017-11-27T18:32:54.977Z,45.10
2017-11-27T18:35:31.336Z,45.00
2017-11-27T18:38:07.836Z,45.40
2017-11-27T18:40:41.817Z,44.90
2017-11-27T18:43:20.098Z,44.20
2017-11-27T18:46:01.196Z,44.70
2017-11-27T18:48:36.750Z,44.00
2017-11-27T18:51:13.865Z,44.10
2017-11-27T18:53:54.806Z,44.40
2017-11-27T18:56:28.915Z,44.10
2017-11-27T18:59:03.647Z,44.30
2017-11-27T19:01:36.336Z,44.10
2017-11-27T19:04:11.139Z,44.10
2017-11-27T19:06:44.346Z,44.30
2017-11-27T19:09:18.867Z,44.40
2017-11-27T19:11:53.587Z,43.60
2017-11-27T19:14:25.117Z,44.20
2017-11-27T19:17:06.106Z,44.70
2017-11-27T19:19:43.156Z,43.90
2017-11-27T19:22:15.396Z,43.70
2017-11-27T19:24:50.332Z,44.10
2017-11-27T19:27:21.537Z,43.70
2017-11-27T19:29:58.416Z,43.80
2017-11-27T19:32:30.491Z,44.10
2017-11-27T19:35:02.436Z,44.10
2017-11-27T19:37:36.666Z,44.20
2017-11-27T19:40:08.716Z,43.70
2017-11-27T19:42:43.546Z,43.80
2017-11-27T19:45:18.275Z,43.90
2017-11-27T19:47:54.846Z,44.20
2017-11-27T19:50:26.808Z,44.20
2017-11-27T19:52:59.896Z,44.30
2017-11-27T19:55:33.595Z,44.30
2017-11-27T19:58:12.108Z,44.00
2017-11-27T20:00:44.476Z,44.20
2017-11-27T20:03:19.617Z,44.10
2017-11-27T20:05:51.986Z,44.10
2017-11-27T20:08:25.187Z,44.00
2017-11-27T20:10:56.747Z,44.00
2017-11-27T20:13:30.448Z,43.90
2017-11-27T20:16:03.946Z,43.70
2017-11-27T20:18:39.695Z,43.70
2017-11-27T20:21:10.225Z,43.60
2017-11-27T20:23:44.836Z,43.50
2017-11-27T20:26:23.257Z,43.80
2017-11-27T20:28:58.626Z,43.80
2017-11-27T20:31:31.787Z,43.90
2017-11-27T20:34:09.067Z,44.00
2017-11-27T20:36:40.727Z,44.00
2017-11-27T20:39:13.156Z,44.00
2017-11-27T20:41:47.178Z,44.30
2017-11-27T20:44:21.021Z,44.30
2017-11-27T20:46:59.527Z,44.40
2017-11-27T20:49:32.827Z,44.20
2017-11-27T20:52:07.116Z,44.50
2017-11-27T20:54:38.106Z,44.50
2017-11-27T20:57:21.536Z,44.00
2017-11-27T20:59:58.792Z,43.70
2017-11-27T21:02:30.346Z,43.70
2017-11-27T21:05:06.175Z,43.50
2017-11-27T21:07:37.241Z,43.40
2017-11-27T21:10:08.146Z,43.20
2017-11-27T21:12:41.567Z,43.00
2017-11-27T21:15:13.865Z,42.90
2017-11-27T21:17:45.695Z,43.00
2017-11-27T21:20:21.856Z,43.70
2017-11-27T21:22:57.707Z,43.10
2017-11-27T21:25:31.426Z,43.10
2017-11-27T21:28:05.427Z,43.30
2017-11-27T21:30:37.787Z,43.40
2017-11-27T21:33:17.125Z,43.70
2017-11-27T21:35:51.126Z,43.60
2017-11-27T21:38:24.945Z,43.60
2017-11-27T21:40:59.575Z,43.70
2017-11-27T21:43:36.966Z,43.40
2017-11-27T21:46:10.356Z,43.80
2017-11-27T21:48:42.146Z,43.40
2017-11-27T21:51:13.666Z,43.60
2017-11-27T21:53:48.925Z,43.20
2017-11-27T21:56:22.086Z,43.40
2017-11-27T21:58:57.946Z,43.50
2017-11-27T22:01:32.155Z,43.60
2017-11-27T22:04:05.866Z,43.60
2017-11-27T22:06:38.538Z,43.50
2017-11-27T22:09:09.376Z,43.50
2017-11-27T22:11:43.577Z,43.90
2017-11-27T22:14:16.885Z,43.60
2017-11-27T22:16:48.228Z,44.10
2017-11-27T22:19:21.186Z,43.10
2017-11-27T22:21:52.256Z,44.00
2017-11-27T22:24:26.051Z,43.60
2017-11-27T22:27:01.515Z,44.10
2017-11-27T22:29:33.086Z,43.70
2017-11-27T22:32:05.836Z,44.00
2017-11-27T22:34:40.701Z,43.30
2017-11-27T22:37:15.907Z,43.60
2017-11-27T22:39:52.136Z,43.90
2017-11-27T22:42:29.866Z,44.20
2017-11-27T22:45:01.927Z,44.20
2017-11-27T22:47:36.506Z,44.90
2017-11-27T22:50:08.116Z,45.20
2017-11-27T22:52:41.145Z,47.00
2017-11-27T22:55:16.846Z,47.80
2017-11-27T22:57:53.825Z,47.60
2017-11-27T23:00:31.443Z,47.60
2017-11-27T23:03:03.376Z,48.00
2017-11-27T23:05:36.366Z,48.00
2017-11-27T23:08:08.537Z,48.10
2017-11-27T23:10:43.467Z,48.00
2017-11-27T23:13:17.577Z,47.80
2017-11-27T23:15:49.536Z,48.20
2017-11-27T23:18:23.546Z,48.90
2017-11-27T23:20:56.425Z,48.90
2017-11-27T23:23:34.735Z,50.00
2017-11-27T23:26:05.876Z,51.30
2017-11-27T23:28:37.536Z,51.30
2017-11-27T23:31:11.437Z,52.40
2017-11-27T23:33:47.296Z,53.10
2017-11-27T23:36:23.870Z,53.00
2017-11-27T23:39:04.126Z,52.70
2017-11-27T23:41:37.756Z,53.50
2017-11-27T23:44:11.837Z,54.40
2017-11-27T23:46:50.255Z,53.70
2017-11-27T23:49:22.407Z,53.90
2017-11-27T23:51:53.686Z,54.10
2017-11-27T23:54:28.078Z,54.20
2017-11-27T23:57:11.606Z,54.10
2017-11-27T23:59:48.090Z,54.80
